Time;durP1;ratioP1;P1;durP2;ratioP2;P2;SDS_P1;SDS_P2;PMS_P1;PMS_P2;Temp;Humidity;BMP_temperature;BMP_pressure;BME280_temperature;BME280_humidity;BME280_pressure;Samples;Min_cycle;Max_cycle;Signal;HPM_P1;HPM_P2
2021/03/11 00:00:32;;;;;;;99.35;41.47;;;6.10;96.00;;;;;;4974598;28;20485;-83
2021/03/11 00:02:58;;;;;;;106.78;43.90;;;6.10;96.00;;;;;;4992267;28;20409;-88
2021/03/11 00:05:24;;;;;;;100.80;41.30;;;6.10;96.00;;;;;;4977652;28;20034;-89
2021/03/11 00:07:49;;;;;;;77.72;37.38;;;6.00;96.00;;;;;;4963748;28;20064;-88
2021/03/11 00:10:15;;;;;;;88.38;40.13;;;6.10;96.00;;;;;;4972652;28;20034;-85
2021/03/11 00:12:43;;;;;;;84.53;39.60;;;6.10;96.00;;;;;;4992651;28;20042;-81
2021/03/11 00:15:15;;;;;;;82.32;37.13;;;6.10;95.90;;;;;;4974856;28;20087;-83
2021/03/11 00:17:42;;;;;;;92.95;39.45;;;6.10;95.90;;;;;;4990710;28;20041;-90
2021/03/11 00:20:11;;;;;;;89.68;38.97;;;6.10;95.90;;;;;;4992353;28;20038;-83
2021/03/11 00:22:37;;;;;;;70.70;32.22;;;6.10;95.90;;;;;;4990747;28;20042;-84
2021/03/11 00:25:08;;;;;;;80.95;34.78;;;6.10;95.90;;;;;;4954717;28;20049;-84
2021/03/11 00:27:34;;;;;;;83.13;37.67;;;6.10;95.90;;;;;;4990827;28;20174;-82
2021/03/11 00:30:00;;;;;;;72.78;34.25;;;6.20;95.90;;;;;;4972452;28;22142;-86
2021/03/11 00:32:25;;;;;;;61.83;28.05;;;6.10;95.90;;;;;;4974846;28;20199;-87
2021/03/11 00:34:51;;;;;;;74.93;34.60;;;6.20;96.20;;;;;;4955108;28;20077;-85
2021/03/11 00:37:17;;;;;;;63.67;30.48;;;6.20;95.90;;;;;;4975913;28;20034;-81
2021/03/11 00:39:44;;;;;;;62.15;30.95;;;6.20;95.80;;;;;;4978042;28;20042;-87
2021/03/11 00:42:09;;;;;;;70.70;32.63;;;6.20;95.80;;;;;;4969920;28;20046;-83
2021/03/11 00:44:35;;;;;;;63.33;30.25;;;6.20;95.80;;;;;;4972692;28;20081;-87
2021/03/11 00:47:06;;;;;;;72.43;33.17;;;6.20;95.80;;;;;;4973701;28;20079;-85
2021/03/11 00:49:33;;;;;;;76.95;35.47;;;6.20;95.80;;;;;;4981035;28;20065;-86
2021/03/11 00:52:00;;;;;;;75.68;31.17;;;6.20;95.90;;;;;;4988874;28;20048;-86
2021/03/11 00:54:26;;;;;;;76.22;33.58;;;6.20;96.20;;;;;;4974451;28;20683;-88
2021/03/11 00:56:52;;;;;;;69.70;31.02;;;6.20;95.90;;;;;;4989270;28;20148;-84
2021/03/11 00:59:18;;;;;;;65.43;28.92;;;6.20;96.00;;;;;;4959892;28;20049;-88
2021/03/11 01:01:44;;;;;;;60.55;28.88;;;6.20;96.30;;;;;;4973195;28;20038;-84
2021/03/11 01:04:12;;;;;;;72.80;31.02;;;6.20;96.00;;;;;;4986306;28;20198;-86
2021/03/11 01:06:38;;;;;;;61.90;28.00;;;6.20;96.00;;;;;;4990200;28;20050;-87
2021/03/11 01:09:04;;;;;;;87.07;35.10;;;6.20;96.10;;;;;;4971891;28;20050;-87
2021/03/11 01:11:30;;;;;;;69.45;30.13;;;6.20;96.10;;;;;;4954010;28;20038;-87
2021/03/11 01:13:56;;;;;;;65.55;28.55;;;6.20;96.10;;;;;;4970779;28;20516;-84
2021/03/11 01:16:22;;;;;;;50.15;23.00;;;6.20;96.10;;;;;;4971839;28;20045;-89
2021/03/11 01:18:48;;;;;;;61.28;28.40;;;6.20;96.10;;;;;;4973087;28;20042;-86
2021/03/11 01:21:14;;;;;;;50.35;26.33;;;6.20;96.10;;;;;;4987166;28;20077;-87
2021/03/11 01:23:40;;;;;;;58.80;26.52;;;6.20;96.10;;;;;;4970162;28;20038;-90
2021/03/11 01:26:06;;;;;;;62.88;26.67;;;6.30;96.10;;;;;;4973300;28;20779;-86
2021/03/11 01:28:32;;;;;;;62.83;29.75;;;6.30;96.00;;;;;;4963067;28;20030;-89
2021/03/11 01:30:58;;;;;;;47.97;24.75;;;6.30;96.00;;;;;;4971165;28;20041;-87
2021/03/11 01:33:24;;;;;;;57.10;28.23;;;6.30;96.00;;;;;;4972882;28;20041;-85
2021/03/11 01:35:50;;;;;;;51.88;26.25;;;6.30;96.00;;;;;;4965513;28;20068;-89
2021/03/11 01:38:16;;;;;;;56.35;26.38;;;6.40;95.90;;;;;;4992740;28;20030;-87
2021/03/11 01:40:42;;;;;;;61.03;27.83;;;6.40;95.90;;;;;;4969670;28;20299;-85
2021/03/11 01:43:08;;;;;;;59.85;27.45;;;6.40;95.90;;;;;;4953339;28;20046;-84
2021/03/11 01:45:34;;;;;;;58.60;27.35;;;6.40;95.90;;;;;;4975079;28;20503;-83
2021/03/11 01:48:00;;;;;;;53.25;24.60;;;6.40;96.00;;;;;;4972739;28;20477;-84
2021/03/11 01:50:26;;;;;;;55.72;27.50;;;6.40;96.00;;;;;;4992546;28;20318;-86
2021/03/11 01:52:52;;;;;;;56.03;25.73;;;6.40;96.00;;;;;;4959362;28;20122;-88
2021/03/11 01:55:19;;;;;;;64.20;28.88;;;6.40;96.10;;;;;;4973741;28;20045;-88
2021/03/11 01:57:47;;;;;;;64.65;28.77;;;6.40;96.10;;;;;;4978593;28;21264;-85
2021/03/11 02:00:14;;;;;;;59.25;27.55;;;6.40;96.10;;;;;;4974585;28;20776;-90
2021/03/11 02:02:45;;;;;;;56.25;25.92;;;6.40;96.20;;;;;;4947802;28;20042;-85
2021/03/11 02:05:13;;;;;;;67.03;30.05;;;6.40;96.20;;;;;;4992600;28;20666;-87
2021/03/11 02:07:39;;;;;;;51.10;24.35;;;6.40;96.20;;;;;;4971980;28;20400;-87
2021/03/11 02:10:07;;;;;;;62.45;28.45;;;6.40;96.20;;;;;;4951139;28;20045;-85
2021/03/11 02:12:51;;;;;;;50.92;25.92;;;6.40;96.20;;;;;;4978209;28;20502;-88
2021/03/11 02:15:27;;;;;;;54.38;23.88;;;6.40;96.20;;;;;;4989327;28;20590;-88
2021/03/11 02:18:08;;;;;;;54.13;25.02;;;6.40;96.20;;;;;;4989222;28;20541;-87
2021/03/11 02:21:07;;;;;;;52.42;25.90;;;6.40;96.30;;;;;;4969527;28;20069;-86
2021/03/11 02:23:39;;;;;;;57.55;26.75;;;6.40;96.30;;;;;;4987221;28;20362;-88
2021/03/11 02:26:17;;;;;;;68.40;29.08;;;6.40;96.30;;;;;;5004830;28;20037;-88
2021/03/11 02:29:32;;;;;;;58.75;26.75;;;6.40;96.30;;;;;;4989851;28;20447;-88
2021/03/11 02:32:01;;;;;;;50.15;24.27;;;6.50;96.30;;;;;;4922733;28;20046;-87
2021/03/11 02:34:36;;;;;;;49.38;25.02;;;6.40;96.30;;;;;;4892698;28;20043;-88
2021/03/11 02:37:09;;;;;;;67.07;30.45;;;6.50;96.40;;;;;;4957976;28;20058;-85
2021/03/11 02:39:37;;;;;;;60.25;28.50;;;6.50;96.40;;;;;;4993571;28;20106;-87
2021/03/11 02:42:06;;;;;;;64.28;29.23;;;6.50;96.70;;;;;;4985990;28;20121;-86
2021/03/11 02:44:33;;;;;;;63.13;27.55;;;6.50;96.40;;;;;;4974425;28;20319;-86
2021/03/11 02:46:59;;;;;;;51.78;25.25;;;6.50;96.40;;;;;;4986091;28;20037;-85
2021/03/11 02:49:25;;;;;;;57.45;28.27;;;6.50;96.40;;;;;;4985901;28;20046;-87
2021/03/11 02:51:52;;;;;;;66.13;27.65;;;6.50;96.50;;;;;;4973762;28;20037;-85
2021/03/11 02:54:19;;;;;;;67.72;28.42;;;6.50;96.40;;;;;;4968483;28;20026;-85
2021/03/11 02:56:47;;;;;;;58.70;26.88;;;6.50;96.50;;;;;;4958584;28;20037;-87
2021/03/11 02:59:13;;;;;;;54.92;26.00;;;6.50;96.40;;;;;;4988666;28;20046;-86
2021/03/11 03:01:40;;;;;;;64.50;29.25;;;6.60;96.50;;;;;;4988965;28;20038;-84
2021/03/11 03:04:09;;;;;;;59.92;27.85;;;6.60;96.50;;;;;;4965102;28;20131;-86
2021/03/11 03:06:35;;;;;;;52.63;25.83;;;6.60;96.50;;;;;;4970883;28;20046;-84
2021/03/11 03:09:02;;;;;;;57.15;26.05;;;6.60;96.50;;;;;;4986286;28;20069;-88
2021/03/11 03:11:28;;;;;;;52.85;22.92;;;6.60;96.50;;;;;;4994690;28;20138;-86
2021/03/11 03:13:55;;;;;;;60.95;25.92;;;6.60;96.50;;;;;;4978063;28;20061;-91
2021/03/11 03:16:22;;;;;;;50.88;22.77;;;6.60;96.50;;;;;;4982339;28;20041;-86
2021/03/11 03:18:48;;;;;;;40.42;20.50;;;6.60;96.50;;;;;;4979772;28;20041;-85
2021/03/11 03:21:15;;;;;;;46.65;23.58;;;6.60;96.50;;;;;;4968065;28;20042;-86
2021/03/11 03:23:42;;;;;;;49.78;23.02;;;6.60;96.60;;;;;;4973357;28;20409;-90
2021/03/11 03:26:08;;;;;;;49.90;24.38;;;6.60;96.60;;;;;;4989383;28;20033;-88
2021/03/11 03:28:35;;;;;;;46.28;21.67;;;6.60;96.60;;;;;;4940413;28;20520;-86
2021/03/11 03:31:01;;;;;;;49.40;23.75;;;6.70;96.60;;;;;;4993030;28;20099;-85
2021/03/11 03:33:27;;;;;;;47.25;23.23;;;6.60;96.60;;;;;;4973010;28;20045;-83
2021/03/11 03:35:53;;;;;;;48.42;22.15;;;6.70;96.60;;;;;;4988843;28;20033;-85
2021/03/11 03:38:21;;;;;;;45.85;21.02;;;6.70;96.60;;;;;;4979892;28;20056;-83
2021/03/11 03:40:46;;;;;;;44.28;20.75;;;6.70;96.80;;;;;;4977012;28;20107;-86
2021/03/11 03:43:24;;;;;;;40.58;21.63;;;6.70;96.70;;;;;;4990442;28;20041;-85
2021/03/11 03:45:55;;;;;;;43.10;22.50;;;6.70;96.70;;;;;;4989935;28;20042;-84
2021/03/11 03:48:48;;;;;;;36.08;17.20;;;6.70;96.70;;;;;;4988335;28;20046;-84
2021/03/11 03:51:17;;;;;;;52.17;24.13;;;6.70;96.70;;;;;;4971832;28;20054;-85
2021/03/11 03:53:56;;;;;;;38.28;20.08;;;6.70;96.70;;;;;;4989624;28;20034;-87
2021/03/11 03:56:25;;;;;;;42.97;21.23;;;6.80;97.10;;;;;;4989052;28;20546;-87
2021/03/11 03:58:57;;;;;;;44.17;21.13;;;6.80;96.80;;;;;;4989496;28;20500;-86
2021/03/11 04:01:29;;;;;;;42.13;19.48;;;6.80;96.80;;;;;;4989787;28;20466;-84
2021/03/11 04:03:59;;;;;;;38.15;20.65;;;6.80;96.70;;;;;;4988886;28;20629;-85
2021/03/11 04:06:25;;;;;;;54.92;24.65;;;6.90;96.80;;;;;;4990053;28;20036;-83
2021/03/11 04:08:52;;;;;;;47.30;22.60;;;6.80;96.70;;;;;;4989483;28;20030;-83
2021/03/11 04:11:19;;;;;;;40.85;20.83;;;6.90;96.80;;;;;;4971997;28;20056;-84
2021/03/11 04:13:47;;;;;;;42.03;20.90;;;6.90;96.80;;;;;;4987883;28;20503;-86
2021/03/11 04:16:16;;;;;;;44.33;23.02;;;6.90;97.10;;;;;;4992003;28;20044;-83
2021/03/11 04:18:42;;;;;;;37.40;19.58;;;6.90;96.80;;;;;;4973398;28;20054;-83
2021/03/11 04:21:09;;;;;;;26.73;16.13;;;6.90;96.80;;;;;;4967335;28;20411;-88
2021/03/11 04:23:37;;;;;;;35.28;19.08;;;7.00;96.80;;;;;;4989370;28;20061;-86
2021/03/11 04:26:04;;;;;;;35.08;19.88;;;7.00;96.80;;;;;;4963156;28;20057;-86
2021/03/11 04:28:31;;;;;;;32.63;17.92;;;7.00;96.70;;;;;;4989075;28;20050;-88
2021/03/11 04:30:57;;;;;;;41.78;21.50;;;7.00;96.70;;;;;;4988069;28;20309;-84
2021/03/11 04:33:24;;;;;;;38.80;18.95;;;7.00;96.70;;;;;;4976430;28;20034;-86
2021/03/11 04:35:51;;;;;;;43.40;20.80;;;7.00;96.70;;;;;;4976353;28;20038;-86
2021/03/11 04:38:17;;;;;;;40.25;20.20;;;7.00;96.70;;;;;;4992038;28;20045;-85
2021/03/11 04:40:44;;;;;;;34.42;16.73;;;7.00;96.80;;;;;;4970695;28;20124;-84
2021/03/11 04:43:11;;;;;;;40.00;19.52;;;7.10;96.80;;;;;;4975414;28;20033;-86
2021/03/11 04:45:39;;;;;;;39.55;21.90;;;7.10;96.80;;;;;;4968244;28;20038;-84
2021/03/11 04:48:07;;;;;;;41.13;18.80;;;7.10;96.80;;;;;;4986945;28;20026;-88
2021/03/11 04:50:33;;;;;;;43.42;21.55;;;7.10;96.80;;;;;;4975084;28;20048;-85
2021/03/11 04:52:59;;;;;;;35.85;19.73;;;7.20;96.90;;;;;;4972383;28;20157;-86
2021/03/11 04:55:25;;;;;;;30.08;17.42;;;7.20;96.90;;;;;;4975714;28;20076;-84
2021/03/11 04:57:52;;;;;;;31.98;17.25;;;7.30;96.90;;;;;;4971812;28;20034;-86
2021/03/11 05:00:20;;;;;;;34.05;18.30;;;7.30;96.80;;;;;;4976849;28;20473;-87
2021/03/11 05:02:48;;;;;;;34.33;19.08;;;7.30;96.80;;;;;;4959505;28;20033;-87
2021/03/11 05:05:26;;;;;;;28.45;15.73;;;7.30;96.80;;;;;;4993249;28;20136;-86
2021/03/11 05:07:51;;;;;;;25.17;15.32;;;7.40;96.80;;;;;;4991854;28;20034;-85
2021/03/11 05:10:17;;;;;;;34.25;18.80;;;7.40;96.70;;;;;;4989799;28;20124;-86
2021/03/11 05:12:45;;;;;;;31.83;17.27;;;7.40;96.70;;;;;;4954906;28;20263;-86
2021/03/11 05:15:11;;;;;;;26.85;15.68;;;7.40;96.70;;;;;;4960650;28;20500;-88
2021/03/11 05:17:37;;;;;;;27.27;16.00;;;7.50;96.70;;;;;;4991812;28;20041;-87
2021/03/11 05:20:03;;;;;;;34.15;16.67;;;7.50;96.70;;;;;;4965097;28;20354;-89
2021/03/11 05:22:29;;;;;;;26.90;15.98;;;7.50;96.70;;;;;;4966167;28;20633;-85
2021/03/11 05:24:55;;;;;;;28.42;17.98;;;7.50;96.60;;;;;;4968733;28;20056;-87
2021/03/11 05:27:20;;;;;;;28.02;17.55;;;7.50;96.60;;;;;;4966442;28;20389;-84
2021/03/11 05:29:46;;;;;;;32.20;19.52;;;7.60;96.60;;;;;;4987806;28;20061;-87
2021/03/11 05:32:12;;;;;;;28.58;17.25;;;7.60;96.60;;;;;;4987470;28;20038;-86
2021/03/11 05:34:38;;;;;;;26.25;16.50;;;7.60;96.60;;;;;;4982193;28;20038;-85
2021/03/11 05:37:04;;;;;;;24.65;15.23;;;7.60;96.50;;;;;;4983602;28;20034;-84
2021/03/11 05:39:30;;;;;;;24.95;15.30;;;7.70;96.50;;;;;;4991470;28;20192;-86
2021/03/11 05:41:57;;;;;;;27.70;17.52;;;7.70;96.40;;;;;;4974810;28;20120;-89
2021/03/11 05:44:23;;;;;;;24.92;15.80;;;7.70;96.40;;;;;;5007560;28;20112;-86
2021/03/11 05:46:50;;;;;;;27.02;17.17;;;7.80;96.30;;;;;;4957068;28;20039;-86
2021/03/11 05:49:17;;;;;;;25.50;16.02;;;7.90;96.30;;;;;;4970632;28;20034;-84
2021/03/11 05:51:44;;;;;;;26.63;16.73;;;7.90;96.30;;;;;;4986202;28;20319;-83
2021/03/11 05:54:10;;;;;;;26.98;17.60;;;7.90;96.20;;;;;;4989344;28;21862;-82
2021/03/11 05:56:36;;;;;;;22.75;15.05;;;7.90;96.20;;;;;;4963404;28;20429;-84
2021/03/11 05:59:04;;;;;;;23.73;16.27;;;7.90;96.10;;;;;;4998534;28;20042;-88
2021/03/11 06:01:31;;;;;;;27.08;17.05;;;8.00;96.10;;;;;;4970353;28;20050;-83
2021/03/11 06:03:59;;;;;;;30.05;18.80;;;8.00;96.10;;;;;;4983106;28;20034;-84
2021/03/11 06:06:30;;;;;;;27.65;18.02;;;8.00;96.20;;;;;;4988734;28;20034;-85
2021/03/11 06:08:57;;;;;;;37.55;20.17;;;8.00;96.30;;;;;;5000595;28;20027;-86
2021/03/11 06:11:23;;;;;;;31.20;17.42;;;8.00;96.30;;;;;;4986542;28;20433;-86
2021/03/11 06:13:52;;;;;;;28.75;18.17;;;8.00;96.30;;;;;;5005111;28;20306;-86
2021/03/11 06:16:22;;;;;;;32.17;19.40;;;8.00;96.40;;;;;;4988332;28;20104;-87
2021/03/11 06:18:50;;;;;;;34.97;20.30;;;8.00;96.40;;;;;;5001516;28;20049;-90
2021/03/11 06:21:17;;;;;;;33.63;19.52;;;8.00;96.40;;;;;;5007374;28;20056;-89
2021/03/11 06:23:43;;;;;;;37.33;19.55;;;8.10;96.40;;;;;;4990914;28;20497;-85
2021/03/11 06:26:11;;;;;;;33.83;20.08;;;8.10;96.40;;;;;;5006808;28;20473;-86
2021/03/11 06:28:46;;;;;;;41.25;22.90;;;8.10;96.40;;;;;;4999717;28;20058;-87
2021/03/11 06:31:38;;;;;;;36.35;19.90;;;8.10;96.50;;;;;;5007548;28;20113;-87
2021/03/11 06:34:21;;;;;;;37.85;19.90;;;8.10;96.50;;;;;;4989230;28;20078;-87
2021/03/11 06:36:48;;;;;;;35.75;21.13;;;8.10;96.50;;;;;;4990579;28;20050;-85
2021/03/11 06:39:31;;;;;;;37.03;20.92;;;8.10;96.50;;;;;;5011868;28;20038;-85
2021/03/11 06:41:59;;;;;;;38.95;21.95;;;8.20;96.50;;;;;;4994558;28;20496;-89
2021/03/11 06:44:51;;;;;;;34.60;20.17;;;8.20;96.50;;;;;;5011221;28;20477;-87
2021/03/11 06:47:18;;;;;;;40.72;21.45;;;8.20;96.60;;;;;;5008048;28;20042;-84
2021/03/11 06:50:06;;;;;;;31.95;17.95;;;8.30;96.60;;;;;;4991743;28;20030;-84
2021/03/11 06:52:32;;;;;;;34.15;19.40;;;8.30;96.50;;;;;;4977160;28;20054;-90
2021/03/11 06:55:10;;;;;;;27.13;16.17;;;8.40;96.50;;;;;;4997804;28;20478;-87
2021/03/11 06:57:38;;;;;;;23.50;15.88;;;8.40;96.40;;;;;;5015357;28;20044;-88
2021/03/11 07:00:18;;;;;;;27.17;15.00;;;8.50;96.40;;;;;;5006532;28;20476;-87
2021/03/11 07:02:57;;;;;;;22.70;13.80;;;8.60;96.30;;;;;;4994684;28;20068;-85
2021/03/11 07:05:25;;;;;;;22.13;14.05;;;8.60;96.10;;;;;;4986689;28;20555;-88
2021/03/11 07:08:08;;;;;;;28.77;15.02;;;8.70;95.90;;;;;;5010955;28;20404;-86
2021/03/11 07:10:36;;;;;;;21.73;13.38;;;8.70;95.90;;;;;;5010071;28;20455;-88
2021/03/11 07:13:03;;;;;;;22.52;13.48;;;8.80;95.80;;;;;;5010372;28;20064;-86
2021/03/11 07:15:31;;;;;;;20.27;13.68;;;8.90;95.80;;;;;;4984960;28;20047;-86
2021/03/11 07:17:58;;;;;;;22.27;14.25;;;8.90;95.70;;;;;;4978108;28;20077;-85
2021/03/11 07:20:31;;;;;;;21.45;13.50;;;9.00;95.60;;;;;;5010842;28;20030;-87
2021/03/11 07:23:09;;;;;;;18.58;12.43;;;9.00;95.60;;;;;;4986453;28;20032;-85
2021/03/11 07:25:36;;;;;;;20.92;13.35;;;9.10;95.50;;;;;;4995065;28;20036;-86
2021/03/11 07:28:04;;;;;;;22.63;14.30;;;9.20;95.40;;;;;;5010562;28;20037;-87
2021/03/11 07:30:31;;;;;;;21.42;12.95;;;9.20;95.30;;;;;;5017104;28;20030;-83
2021/03/11 07:33:08;;;;;;;19.88;12.52;;;9.30;95.20;;;;;;4994004;28;20448;-86
2021/03/11 07:35:34;;;;;;;18.17;11.32;;;9.40;95.20;;;;;;4977490;28;20053;-87
2021/03/11 07:38:04;;;;;;;19.83;11.35;;;9.40;95.10;;;;;;4992901;28;20046;-89
2021/03/11 07:40:33;;;;;;;17.23;11.20;;;9.50;94.90;;;;;;5010250;28;20465;-87
2021/03/11 07:42:59;;;;;;;15.38;10.82;;;9.50;94.80;;;;;;5008235;28;20389;-86
2021/03/11 07:45:26;;;;;;;18.27;11.80;;;9.50;94.70;;;;;;5010024;28;20061;-88
2021/03/11 07:47:53;;;;;;;17.95;11.40;;;9.60;94.60;;;;;;4993583;28;20046;-84
2021/03/11 07:50:19;;;;;;;19.17;11.65;;;9.60;94.60;;;;;;4992069;28;20126;-86
2021/03/11 07:52:45;;;;;;;17.10;11.30;;;9.60;94.60;;;;;;4985861;28;20037;-84
2021/03/11 07:55:12;;;;;;;21.77;11.57;;;9.60;94.30;;;;;;5008228;28;20033;-85
2021/03/11 07:57:47;;;;;;;19.00;9.38;;;9.60;94.20;;;;;;4992945;28;20042;-86
2021/03/11 08:00:15;;;;;;;21.63;10.23;;;9.60;94.20;;;;;;4992919;28;20417;-86
2021/03/11 08:02:56;;;;;;;16.58;10.75;;;9.60;94.10;;;;;;5002096;28;20141;-83
2021/03/11 08:05:32;;;;;;;18.42;10.40;;;9.60;93.90;;;;;;5008686;28;20038;-89
2021/03/11 08:08:22;;;;;;;19.52;10.00;;;9.60;93.80;;;;;;4992737;28;20034;-85
2021/03/11 08:10:55;;;;;;;17.35;10.10;;;9.60;93.60;;;;;;5010733;28;20053;-85
2021/03/11 08:13:28;;;;;;;17.90;9.48;;;9.70;93.70;;;;;;4987155;28;20326;-87
2021/03/11 08:15:55;;;;;;;17.80;9.40;;;9.70;93.70;;;;;;5007899;28;20037;-84
2021/03/11 08:18:39;;;;;;;19.25;9.50;;;9.80;93.60;;;;;;4991947;28;20038;-87
2021/03/11 08:21:26;;;;;;;18.40;7.97;;;9.80;93.40;;;;;;4978997;28;20117;-87
2021/03/11 08:23:54;;;;;;;18.88;7.25;;;9.90;93.10;;;;;;5002382;28;20124;-86
2021/03/11 08:26:38;;;;;;;12.90;5.20;;;9.90;92.70;;;;;;5010398;28;20100;-88
2021/03/11 08:29:19;;;;;;;14.15;5.50;;;10.00;91.50;;;;;;5003817;28;20038;-88
2021/03/11 08:31:46;;;;;;;20.85;5.68;;;10.10;91.20;;;;;;5009748;28;20057;-86
2021/03/11 08:34:33;;;;;;;21.42;5.80;;;10.00;92.00;;;;;;4993274;28;20033;-87
2021/03/11 08:37:17;;;;;;;23.27;5.40;;;9.90;91.00;;;;;;5006028;28;20041;-86
2021/03/11 08:39:43;;;;;;;23.75;5.43;;;9.90;91.20;;;;;;5009327;28;20117;-86
2021/03/11 08:42:50;;;;;;;23.45;6.32;;;9.90;91.30;;;;;;4993317;28;20049;-88
2021/03/11 08:45:51;;;;;;;23.83;5.18;;;10.00;89.70;;;;;;4987574;28;20069;-83
2021/03/11 08:48:22;;;;;;;22.42;4.82;;;10.20;90.40;;;;;;5009928;28;20096;-86
2021/03/11 08:50:50;;;;;;;32.05;5.00;;;10.20;90.70;;;;;;4983836;28;20330;-87
2021/03/11 08:53:38;;;;;;;23.92;5.82;;;10.20;90.60;;;;;;4984473;28;20323;-87
2021/03/11 08:56:16;;;;;;;26.52;5.80;;;10.20;88.90;;;;;;5008774;28;20030;-86
2021/03/11 08:58:56;;;;;;;27.58;4.95;;;10.30;89.30;;;;;;5010050;28;20030;-85
2021/03/11 09:01:28;;;;;;;23.90;5.45;;;10.30;89.30;;;;;;5008205;28;20059;-84
2021/03/11 09:03:58;;;;;;;28.17;4.30;;;10.30;88.60;;;;;;4996617;28;20039;-85
2021/03/11 09:06:50;;;;;;;32.00;4.82;;;10.40;87.80;;;;;;4986812;28;20044;-83
2021/03/11 09:09:17;;;;;;;21.50;4.03;;;10.50;86.80;;;;;;5009572;28;20160;-85
2021/03/11 09:11:55;;;;;;;31.60;5.63;;;10.50;88.60;;;;;;5013093;28;20034;-87
2021/03/11 09:14:26;;;;;;;29.80;5.18;;;10.40;87.30;;;;;;4975911;28;20483;-88
2021/03/11 09:16:52;;;;;;;28.48;4.47;;;10.40;87.60;;;;;;5009380;28;20048;-83
2021/03/11 09:19:18;;;;;;;29.40;5.05;;;10.40;87.50;;;;;;4991765;28;20034;-86
2021/03/11 09:21:44;;;;;;;34.70;5.53;;;10.40;87.10;;;;;;5008219;28;20033;-86
2021/03/11 09:24:20;;;;;;;24.30;5.20;;;10.30;87.60;;;;;;4995051;28;20092;-85
2021/03/11 09:26:47;;;;;;;30.55;6.05;;;10.30;87.80;;;;;;4980433;28;20030;-87
2021/03/11 09:29:14;;;;;;;32.58;5.03;;;10.40;88.20;;;;;;4990931;28;20037;-89
2021/03/11 09:31:40;;;;;;;27.20;5.40;;;10.40;87.70;;;;;;4993651;28;20045;-84
2021/03/11 09:34:07;;;;;;;36.13;5.65;;;10.50;86.90;;;;;;4993227;28;20053;-85
2021/03/11 09:36:34;;;;;;;29.17;4.68;;;10.50;86.20;;;;;;4991588;28;20041;-85
2021/03/11 09:39:05;;;;;;;32.10;5.53;;;10.50;86.30;;;;;;4992770;28;20082;-86
2021/03/11 09:41:31;;;;;;;32.03;4.93;;;10.50;83.10;;;;;;4981798;28;20045;-84
2021/03/11 09:44:07;;;;;;;32.80;6.68;;;10.60;83.80;;;;;;5008554;28;20602;-86
2021/03/11 09:46:35;;;;;;;42.63;5.90;;;10.70;80.70;;;;;;4990893;28;20046;-86
2021/03/11 09:49:01;;;;;;;31.65;4.40;;;10.70;83.20;;;;;;4975360;28;20038;-87
2021/03/11 09:51:29;;;;;;;31.02;5.28;;;10.70;82.80;;;;;;4988285;28;20049;-87
2021/03/11 09:54:00;;;;;;;31.60;5.10;;;10.70;83.00;;;;;;5011032;28;20038;-86
2021/03/11 09:56:28;;;;;;;28.80;4.85;;;10.70;82.50;;;;;;5010019;28;20385;-85
2021/03/11 09:59:06;;;;;;;35.88;5.90;;;10.70;80.60;;;;;;4993408;28;20040;-85
2021/03/11 10:01:40;;;;;;;30.67;5.38;;;10.80;81.30;;;;;;4989026;28;20061;-84
2021/03/11 10:04:29;;;;;;;39.42;5.28;;;10.80;79.30;;;;;;4992790;28;20048;-85
2021/03/11 10:07:02;;;;;;;33.50;5.18;;;10.90;76.40;;;;;;4966400;28;20038;-88
2021/03/11 10:09:39;;;;;;;26.98;4.90;;;10.90;81.50;;;;;;5007725;28;20034;-86
2021/03/11 10:12:05;;;;;;;30.00;5.32;;;11.00;77.70;;;;;;4991791;28;20328;-84
2021/03/11 10:14:31;;;;;;;34.30;4.85;;;10.90;80.10;;;;;;4998808;28;20038;-85
2021/03/11 10:17:02;;;;;;;25.98;5.43;;;10.90;78.80;;;;;;4991593;28;20026;-84
2021/03/11 10:19:28;;;;;;;33.63;5.72;;;10.90;80.20;;;;;;5008113;28;20125;-89
2021/03/11 10:22:04;;;;;;;34.45;5.60;;;10.90;81.60;;;;;;5008134;28;20705;-88
2021/03/11 10:24:38;;;;;;;40.20;5.78;;;10.80;80.40;;;;;;5007949;28;20349;-85
2021/03/11 10:27:26;;;;;;;31.20;5.82;;;10.80;80.00;;;;;;5009491;28;20034;-83
2021/03/11 10:30:26;;;;;;;43.28;5.90;;;10.70;80.90;;;;;;4984237;28;20077;-86
2021/03/11 10:32:57;;;;;;;37.35;6.75;;;10.60;80.10;;;;;;4993767;28;20481;-87
2021/03/11 10:35:25;;;;;;;35.33;5.70;;;10.40;81.70;;;;;;5008596;28;20472;-87
2021/03/11 10:37:51;;;;;;;43.78;7.20;;;10.20;83.30;;;;;;5007272;28;20269;-84
2021/03/11 10:40:25;;;;;;;40.53;6.35;;;10.10;85.30;;;;;;5007928;28;20037;-86
2021/03/11 10:42:55;;;;;;;44.60;6.20;;;9.90;85.00;;;;;;5003237;28;20037;-86
2021/03/11 10:45:26;;;;;;;37.50;6.03;;;9.60;87.40;;;;;;4990594;28;20034;-84
2021/03/11 10:48:05;;;;;;;51.17;7.47;;;9.30;89.00;;;;;;5003414;28;20330;-85
2021/03/11 10:50:57;;;;;;;48.50;7.05;;;9.10;90.30;;;;;;4991849;28;20069;-88
2021/03/11 10:53:52;;;;;;;41.13;7.35;;;8.80;91.00;;;;;;4996176;28;20046;-85
2021/03/11 10:56:18;;;;;;;45.40;6.28;;;8.60;91.80;;;;;;4978786;28;20058;-87
2021/03/11 10:58:44;;;;;;;49.00;6.50;;;8.40;92.10;;;;;;4980379;28;20295;-87
2021/03/11 11:01:13;;;;;;;43.45;5.97;;;8.30;92.70;;;;;;4989842;28;20399;-85
2021/03/11 11:03:40;;;;;;;36.00;5.35;;;8.30;92.90;;;;;;4990905;28;20065;-89
2021/03/11 11:06:07;;;;;;;51.42;6.85;;;8.20;93.10;;;;;;5009199;28;20571;-85
2021/03/11 11:08:42;;;;;;;44.10;5.88;;;8.10;93.60;;;;;;4990155;28;20377;-86
2021/03/11 11:11:09;;;;;;;48.38;6.70;;;8.10;93.80;;;;;;5007181;28;20768;-89
2021/03/11 11:13:34;;;;;;;42.28;6.05;;;8.00;93.90;;;;;;4975127;28;20041;-89
2021/03/11 11:16:00;;;;;;;48.30;5.65;;;8.00;94.10;;;;;;4971202;28;20046;-89
2021/03/11 11:18:26;;;;;;;40.35;6.18;;;8.00;94.20;;;;;;4961131;28;20037;-87
2021/03/11 11:20:52;;;;;;;45.42;7.55;;;8.00;94.30;;;;;;4986389;28;20239;-85
2021/03/11 11:23:18;;;;;;;52.50;6.60;;;8.00;94.40;;;;;;4985980;28;20637;-89
2021/03/11 11:25:44;;;;;;;47.30;7.97;;;8.00;94.50;;;;;;5012039;28;20050;-89
2021/03/11 11:28:10;;;;;;;58.53;7.95;;;7.90;94.60;;;;;;4979313;28;20277;-88
2021/03/11 11:30:36;;;;;;;50.60;7.50;;;7.90;94.70;;;;;;5012884;28;20030;-85
2021/03/11 11:33:02;;;;;;;65.45;7.03;;;7.90;94.80;;;;;;4991538;28;20045;-88
2021/03/11 11:35:28;;;;;;;49.95;7.40;;;7.90;94.90;;;;;;5010304;28;20481;-87
2021/03/11 11:37:54;;;;;;;68.55;8.25;;;7.90;95.10;;;;;;4977628;28;20045;-90
2021/03/11 11:40:20;;;;;;;54.47;7.38;;;7.90;95.30;;;;;;5010840;28;20034;-86
2021/03/11 11:42:47;;;;;;;38.22;5.82;;;7.90;95.20;;;;;;4991372;28;20034;-87
2021/03/11 11:45:13;;;;;;;36.30;5.55;;;7.90;95.30;;;;;;4994111;28;20395;-85
2021/03/11 11:47:45;;;;;;;51.88;7.07;;;7.90;95.10;;;;;;4993313;28;20483;-89
2021/03/11 11:50:12;;;;;;;42.72;6.22;;;7.90;95.20;;;;;;4988721;28;20042;-88
2021/03/11 11:52:39;;;;;;;49.33;6.75;;;7.90;95.30;;;;;;5002687;28;20429;-90
2021/03/11 11:55:10;;;;;;;50.67;6.38;;;7.80;95.50;;;;;;4993472;28;20488;-87
2021/03/11 11:57:36;;;;;;;49.13;5.72;;;7.80;95.60;;;;;;5008070;28;20140;-85
2021/03/11 12:00:07;;;;;;;28.73;3.95;;;7.80;95.60;;;;;;4993058;28;20444;-86
2021/03/11 12:02:33;;;;;;;31.20;4.03;;;7.80;95.30;;;;;;4993554;28;20057;-86
2021/03/11 12:04:59;;;;;;;37.53;4.60;;;7.70;95.40;;;;;;5009521;28;20046;-89
2021/03/11 12:07:25;;;;;;;27.45;3.80;;;7.60;95.60;;;;;;4991096;28;20496;-88
2021/03/11 12:09:52;;;;;;;35.75;4.57;;;7.70;95.50;;;;;;5010122;28;20037;-85
2021/03/11 12:12:18;;;;;;;43.65;5.95;;;7.60;95.70;;;;;;4980189;28;20499;-85
2021/03/11 12:14:44;;;;;;;39.75;5.45;;;7.60;95.90;;;;;;5009236;28;20120;-92
2021/03/11 12:17:10;;;;;;;45.42;6.10;;;7.60;95.90;;;;;;5006648;28;20058;-85
2021/03/11 12:19:36;;;;;;;39.45;5.82;;;7.60;95.90;;;;;;4990865;28;20042;-85
2021/03/11 12:22:02;;;;;;;39.72;4.70;;;7.60;96.20;;;;;;4993181;28;20496;-87
2021/03/11 12:24:28;;;;;;;36.92;5.25;;;7.60;96.10;;;;;;4976939;28;20075;-85
2021/03/11 12:26:54;;;;;;;50.15;7.30;;;7.60;96.10;;;;;;4994111;28;20030;-89
2021/03/11 12:29:20;;;;;;;43.35;5.88;;;7.60;96.20;;;;;;4980562;28;20077;-82
2021/03/11 12:31:47;;;;;;;61.90;7.03;;;7.60;96.20;;;;;;4994005;28;20045;-86
2021/03/11 12:34:13;;;;;;;48.58;6.63;;;7.70;96.20;;;;;;5009705;28;20488;-84
2021/03/11 12:36:39;;;;;;;52.50;7.03;;;7.70;96.20;;;;;;4980487;28;20064;-86
2021/03/11 12:39:07;;;;;;;54.65;7.65;;;7.70;96.20;;;;;;5008745;28;20079;-87
2021/03/11 12:41:33;;;;;;;48.85;8.10;;;7.70;96.20;;;;;;5008958;28;20041;-89
2021/03/11 12:43:59;;;;;;;45.47;6.72;;;7.70;96.20;;;;;;5008326;28;20034;-84
2021/03/11 12:46:27;;;;;;;50.83;7.07;;;7.80;95.90;;;;;;5009271;28;20040;-85
2021/03/11 12:48:53;;;;;;;54.97;7.32;;;7.80;96.00;;;;;;5008769;28;20436;-86
2021/03/11 12:51:20;;;;;;;56.88;7.28;;;7.90;95.80;;;;;;4992674;28;20048;-86